»·PEaware :: N101WS KVNY-KCMA

N101WS :: KVNY-KCMA

FLIGHT INFORMATION

Flight Status: Arrived
Operator: Privately registered:
United States
More flights under this callsign
Pilot: Mark K. (33451)
Aircraft: CESSNA 172 SKYHAWK
(C172)
More flights by this aircraft type
Origin: KVNY Van Nuys
United States
Destination: KCMA Camarillo
United States
More flights between these airports :: More routes between these airports
Route: CANOG3 FIM
File this flight plan on PilotEdge
Remarks:
Altitude:
(Current/Filed)
4,000ft
Speed:
(Current/Filed)
0kts
Departed: 31-Jan-21 09:25 PM
Arrived: 31-Jan-21 09:57 PM
Distance/Time
Traveled:
30nm/0:31
Distance/Time
To Go:
Arrived

Flight Plot

Page will automatically refresh every two minutes.

Flight plan parsing failed; only flown route is shown


Map Options




Map Legend


Flown Route
Filed Route
Departure Airport
Arrival Airport
Navaid (VOR, NDB)
Fix

Horizontal Profiles

Position Reports

Time Latitude Longitude Heading Altitude Ground
Speed
31-Jan-21 21:18 34.219375 -118.493027 265 805ft 0kts
31-Jan-21 21:19 34.219375 -118.493027 265 805ft 0kts
31-Jan-21 21:20 34.219375 -118.493027 265 805ft 0kts
31-Jan-21 21:21 34.219375 -118.493027 265 805ft 0kts
31-Jan-21 21:22 34.218682 -118.492194 81 805ft 0kts
31-Jan-21 21:23 34.218684 -118.492184 81 805ft 0kts
31-Jan-21 21:24 34.214251 -118.490791 175 812ft 79kts
31-Jan-21 21:25 34.188657 -118.487222 178 1761ft 89kts
31-Jan-21 21:26 34.161545 -118.480456 165 2551ft 98kts
31-Jan-21 21:27 34.133351 -118.478930 183 3329ft 102kts
31-Jan-21 21:28 34.113530 -118.493792 297 3843ft 114kts
31-Jan-21 21:29 34.118424 -118.530882 285 4220ft 127kts
31-Jan-21 21:30 34.132352 -118.573138 292 3990ft 136kts
31-Jan-21 21:31 34.146438 -118.614664 292 3987ft 133kts
31-Jan-21 21:33 34.159997 -118.654581 292 3978ft 117kts
31-Jan-21 21:34 34.171998 -118.689898 292 3973ft 111kts
31-Jan-21 21:35 34.198461 -118.697515 0 4331ft 99kts
31-Jan-21 21:36 34.223356 -118.708442 333 4826ft 93kts
31-Jan-21 21:37 34.248362 -118.724208 331 5011ft 114kts
31-Jan-21 21:38 34.277772 -118.742924 332 5017ft 122kts
31-Jan-21 21:39 34.309588 -118.752227 11 5012ft 122kts
31-Jan-21 21:40 34.342848 -118.743465 9 5011ft 122kts
31-Jan-21 21:41 34.376147 -118.750603 342 5000ft 122kts
31-Jan-21 21:42 34.371628 -118.779574 193 4985ft 122kts
31-Jan-21 21:43 34.337875 -118.781473 182 4983ft 122kts
31-Jan-21 21:44 34.304086 -118.785428 186 4736ft 116kts
31-Jan-21 21:45 34.273192 -118.789877 186 4332ft 110kts
31-Jan-21 21:46 34.246711 -118.793680 186 4388ft 89kts
31-Jan-21 21:47 34.220526 -118.797911 202 4421ft 100kts
31-Jan-21 21:48 34.211786 -118.831938 268 4023ft 110kts
31-Jan-21 21:49 34.211749 -118.869336 270 3322ft 111kts
31-Jan-21 21:49 34.202232 -118.895569 227 2805ft 108kts
31-Jan-21 21:51 34.205959 -118.933591 280 2716ft 107kts
31-Jan-21 21:51 34.208183 -118.963465 271 2489ft 105kts
31-Jan-21 21:52 34.212596 -118.998987 272 1838ft 108kts
31-Jan-21 21:53 34.212704 -119.034587 269 1452ft 105kts
31-Jan-21 21:54 34.213248 -119.069857 271 994ft 98kts
31-Jan-21 21:55 34.213715 -119.092568 271 74ft 49kts
31-Jan-21 21:56 34.213757 -119.100535 238 60ft 11kts
31-Jan-21 21:57 34.211879 -119.097384 88 63ft 19kts
31-Jan-21 21:58 34.211828 -119.092739 88 66ft 17kts
31-Jan-21 21:59 34.210631 -119.089342 201 69ft 5kts
31-Jan-21 22:00 34.210628 -119.089935 346 69ft 0kts
31-Jan-21 22:01 34.210628 -119.089935 346 69ft 0kts
31-Jan-21 22:02 34.210628 -119.089935 346 69ft 0kts
31-Jan-21 22:03 34.210628 -119.089935 346 69ft 0kts
31-Jan-21 22:04 34.210628 -119.089935 346 69ft 0kts
31-Jan-21 22:05 34.210628 -119.089935 346 69ft 0kts
31-Jan-21 22:06 34.210628 -119.089935 346 69ft 0kts
31-Jan-21 22:07 34.210628 -119.089935 346 69ft 0kts
31-Jan-21 22:08 34.210628 -119.089935 346 69ft 0kts
31-Jan-21 22:09 34.210628 -119.089935 346 69ft 0kts
31-Jan-21 22:10 34.210628 -119.089935 346 69ft 0kts

Navigation Log

Ident Type
Flight plan parsing failed, navigation log unavailable